createdAt,value
2022-11-26T00:01:31.093Z,98856.81
2022-11-26T00:06:44.980Z,98853.41
2022-11-26T00:11:46.868Z,98855.28
2022-11-26T00:16:48.661Z,98854.47
2022-11-26T00:21:50.649Z,98857.88
2022-11-26T00:26:52.896Z,98861.28
2022-11-26T00:31:54.778Z,98869.16
2022-11-26T00:36:56.622Z,98870.78
2022-11-26T00:41:58.558Z,98877.72
2022-11-26T00:47:00.557Z,98882.19
2022-11-26T00:52:02.669Z,98894.16
2022-11-26T00:57:04.570Z,98906.13
2022-11-26T01:02:06.522Z,98912.13
2022-11-26T01:07:10.717Z,98905.06
2022-11-26T01:12:15.599Z,98919.59
2022-11-26T01:17:17.380Z,98923.81
2022-11-26T01:22:24.008Z,98933.22
2022-11-26T01:27:25.810Z,98929.00
2022-11-26T01:32:29.536Z,98930.63
2022-11-26T01:37:31.784Z,98938.38
2022-11-26T01:42:46.963Z,98933.22
2022-11-26T01:47:50.011Z,98936.88
2022-11-26T01:52:52.819Z,98939.44
2022-11-26T01:57:54.666Z,98951.41
2022-11-26T02:02:56.739Z,98949.66
2022-11-26T02:08:00.405Z,98952.22
2022-11-26T02:13:02.449Z,98955.63
2022-11-26T02:18:08.167Z,98952.94
2022-11-26T02:23:31.141Z,98958.78
2022-11-26T02:28:57.043Z,98969.25
2022-11-26T02:34:15.150Z,98976.19
2022-11-26T02:39:23.160Z,98977.13
2022-11-26T02:44:45.395Z,98988.28
2022-11-26T02:49:50.773Z,98997.78
2022-11-26T02:54:54.320Z,99001.31
2022-11-26T02:59:56.733Z,99003.91
2022-11-26T03:05:01.754Z,99004.84
2022-11-26T03:10:04.739Z,99019.50
2022-11-26T03:15:07.666Z,99019.75
2022-11-26T03:20:10.150Z,99022.34
2022-11-26T03:25:12.551Z,99031.03
2022-11-26T03:30:14.977Z,99043.13
2022-11-26T03:35:16.727Z,99038.91
2022-11-26T03:40:19.060Z,99057.81
2022-11-26T03:45:23.945Z,99062.28
2022-11-26T03:50:25.743Z,99062.97
2022-11-26T03:55:27.648Z,99069.91
2022-11-26T04:00:29.878Z,99078.59
2022-11-26T04:05:32.188Z,99078.72
2022-11-26T04:10:34.257Z,99065.81
2022-11-26T04:15:36.093Z,99074.25
2022-11-26T04:20:38.103Z,99076.59
2022-11-26T04:25:39.843Z,99080.94
2022-11-26T04:30:42.498Z,99087.84
2022-11-26T04:35:44.510Z,99092.91
2022-11-26T04:40:48.172Z,99102.41
2022-11-26T04:45:49.915Z,99111.94
2022-11-26T04:50:51.959Z,99125.66
2022-11-26T04:55:53.692Z,99132.59
2022-11-26T05:00:55.456Z,99131.75
2022-11-26T05:05:57.319Z,99138.56
2022-11-26T05:11:01.600Z,99146.31
2022-11-26T05:16:03.690Z,99149.72
2022-11-26T05:21:07.207Z,99154.06
2022-11-26T05:26:08.986Z,99159.22
2022-11-26T05:31:12.164Z,99159.13
2022-11-26T05:36:14.011Z,99167.69
2022-11-26T05:41:15.990Z,99180.47
2022-11-26T05:46:18.833Z,99180.47
2022-11-26T05:51:20.647Z,99178.84
2022-11-26T05:56:22.681Z,99183.06
2022-11-26T06:01:24.907Z,99188.94
2022-11-26T06:06:26.830Z,99196.66
2022-11-26T06:11:28.673Z,99204.41
2022-11-26T06:16:30.747Z,99207.13
2022-11-26T06:21:32.629Z,99215.69
2022-11-26T06:26:34.525Z,99224.25
2022-11-26T06:31:36.546Z,99222.63
2022-11-26T06:36:38.640Z,99230.50
2022-11-26T06:41:40.710Z,99232.13
2022-11-26T06:46:42.737Z,99240.81
2022-11-26T06:51:44.681Z,99251.16
2022-11-26T06:56:46.764Z,99254.56
2022-11-26T07:01:48.693Z,99263.94
2022-11-26T07:06:50.612Z,99266.66
2022-11-26T07:11:52.597Z,99277.00
2022-11-26T07:16:54.468Z,99285.44
2022-11-26T07:21:56.283Z,99289.66
2022-11-26T07:26:58.250Z,99293.78
2022-11-26T07:32:00.499Z,99302.34
2022-11-26T07:37:02.559Z,99303.97
2022-11-26T07:42:07.159Z,99309.97
2022-11-26T07:47:09.084Z,99309.16
2022-11-26T07:52:11.025Z,99319.59
2022-11-26T07:57:12.833Z,99318.53
2022-11-26T08:02:16.113Z,99325.34
2022-11-26T08:07:25.872Z,99327.94
2022-11-26T08:12:31.205Z,99332.88
2022-11-26T08:17:32.968Z,99342.03
2022-11-26T08:22:35.066Z,99352.25
2022-11-26T08:27:36.904Z,99356.34
2022-11-26T08:32:38.715Z,99363.03
2022-11-26T08:37:42.553Z,99352.72
2022-11-26T08:42:44.789Z,99355.06
2022-11-26T08:47:46.674Z,99356.69
2022-11-26T08:52:48.602Z,99362.09
2022-11-26T08:57:50.501Z,99375.00
2022-11-26T09:02:52.468Z,99374.53
2022-11-26T09:07:55.142Z,99379.13
2022-11-26T09:12:57.192Z,99382.16
2022-11-26T09:17:58.978Z,99379.09
2022-11-26T09:23:00.774Z,99389.56
2022-11-26T09:28:02.598Z,99392.50
2022-11-26T09:33:04.528Z,99387.66
2022-11-26T09:38:06.588Z,99396.00
2022-11-26T09:43:20.269Z,99398.84
2022-11-26T09:48:26.318Z,99394.38
2022-11-26T09:53:33.320Z,99400.56
2022-11-26T09:58:48.822Z,99403.75
2022-11-26T10:03:52.240Z,99410.81
2022-11-26T10:09:15.230Z,99410.09
2022-11-26T10:14:26.125Z,99410.94
2022-11-26T10:19:42.537Z,99410.81
2022-11-26T10:24:44.773Z,99416.91
2022-11-26T10:29:52.194Z,99419.16
2022-11-26T10:34:56.406Z,99422.78
2022-11-26T10:40:11.485Z,99426.31
2022-11-26T10:45:21.007Z,99433.03
2022-11-26T10:50:47.116Z,99431.25
2022-11-26T10:55:47.585Z,99433.16
2022-11-26T11:00:49.506Z,99440.19
2022-11-26T11:05:52.340Z,99449.84
2022-11-26T11:10:57.572Z,99453.38
2022-11-26T11:16:02.742Z,99451.63
2022-11-26T11:21:06.611Z,99446.44
2022-11-26T11:26:18.197Z,99448.31
2022-11-26T11:31:22.991Z,99458.09
2022-11-26T11:36:29.292Z,99464.09
2022-11-26T11:41:36.659Z,99465.72
2022-11-26T11:47:10.823Z,99471.50
2022-11-26T11:52:45.764Z,99473.84
2022-11-26T11:57:58.072Z,99471.72
2022-11-26T12:03:11.744Z,99470.53
2022-11-26T12:08:22.939Z,99474.06
2022-11-26T12:13:28.320Z,99478.41
2022-11-26T12:18:54.118Z,99474.06
2022-11-26T12:23:55.984Z,99474.06
2022-11-26T12:29:14.331Z,99472.41
2022-11-26T12:34:18.966Z,99476.66
2022-11-26T12:39:51.921Z,99472.16
2022-11-26T12:45:03.094Z,99477.09
2022-11-26T12:50:10.930Z,99479.00
2022-11-26T12:55:18.940Z,99483.59
2022-11-26T13:00:26.088Z,99488.19
2022-11-26T13:05:58.361Z,99495.13
2022-11-26T13:11:15.224Z,99482.75
2022-11-26T13:16:49.467Z,99493.56
2022-11-26T13:22:11.043Z,99485.69
2022-11-26T13:27:30.099Z,99494.28
2022-11-26T13:32:37.639Z,99494.53
2022-11-26T13:37:51.388Z,99502.41
2022-11-26T13:42:56.243Z,99502.53
2022-11-26T13:48:06.366Z,99503.47
2022-11-26T13:53:31.779Z,99505.09
2022-11-26T13:58:48.103Z,99498.28
2022-11-26T14:03:50.624Z,99503.59
2022-11-26T14:08:54.029Z,99499.34
2022-11-26T14:14:24.862Z,99507.00
2022-11-26T14:19:42.402Z,99505.59
2022-11-26T14:24:50.195Z,99514.28
2022-11-26T14:30:06.098Z,99517.81
2022-11-26T14:35:20.945Z,99520.53
2022-11-26T14:40:33.221Z,99523.22
2022-11-26T14:45:35.952Z,99516.66
2022-11-26T14:50:38.229Z,99525.59
2022-11-26T14:55:40.053Z,99521.59
2022-11-26T15:00:42.116Z,99518.72
2022-11-26T15:05:45.323Z,99519.19
2022-11-26T15:10:54.521Z,99514.63
2022-11-26T15:15:59.250Z,99516.25
2022-11-26T15:21:04.002Z,99519.75
2022-11-26T15:26:06.448Z,99528.19
2022-11-26T15:31:10.145Z,99534.03
2022-11-26T15:36:17.431Z,99536.38
2022-11-26T15:41:20.183Z,99533.41
2022-11-26T15:46:34.958Z,99537.16
2022-11-26T15:51:52.023Z,99536.44
2022-11-26T15:57:05.060Z,99540.09
2022-11-26T16:02:21.901Z,99531.63
2022-11-26T16:07:27.939Z,99533.38
2022-11-26T16:12:32.850Z,99538.53
2022-11-26T16:17:35.186Z,99535.97
2022-11-26T16:22:36.967Z,99537.50
2022-11-26T16:27:38.907Z,99545.84
2022-11-26T16:32:40.752Z,99544.69
2022-11-26T16:37:48.153Z,99546.94
2022-11-26T16:42:51.203Z,99538.97
2022-11-26T16:47:55.863Z,99547.41
2022-11-26T16:52:57.738Z,99545.53
2022-11-26T16:58:02.448Z,99551.44
2022-11-26T17:03:04.396Z,99557.41
2022-11-26T17:08:10.222Z,99558.25
2022-11-26T17:13:12.484Z,99574.56
2022-11-26T17:18:23.080Z,99571.28
2022-11-26T17:23:25.136Z,99576.44
2022-11-26T17:28:28.177Z,99577.50
2022-11-26T17:33:30.070Z,99573.97
2022-11-26T17:38:32.357Z,99575.63
2022-11-26T17:43:35.749Z,99574.56
2022-11-26T17:48:48.957Z,99583.97
2022-11-26T17:53:55.340Z,99578.91
2022-11-26T17:59:01.445Z,99581.50
2022-11-26T18:04:06.780Z,99583.25
2022-11-26T18:09:12.003Z,99585.72
2022-11-26T18:14:17.318Z,99600.28
2022-11-26T18:19:22.221Z,99592.66
2022-11-26T18:24:24.136Z,99598.75
2022-11-26T18:29:27.714Z,99603.81
2022-11-26T18:34:29.595Z,99600.41
2022-11-26T18:39:31.529Z,99603.22
2022-11-26T18:44:33.463Z,99607.56
2022-11-26T18:49:35.267Z,99609.44
2022-11-26T18:54:37.003Z,99610.25
2022-11-26T18:59:39.007Z,99613.78
2022-11-26T19:04:41.365Z,99605.09
2022-11-26T19:09:43.486Z,99594.84
2022-11-26T19:14:45.420Z,99603.53
2022-11-26T19:19:47.996Z,99598.00
2022-11-26T19:24:49.824Z,99598.34
2022-11-26T19:29:51.643Z,99601.34
2022-11-26T19:34:54.277Z,99599.09
2022-11-26T19:39:56.048Z,99612.84
2022-11-26T19:44:57.778Z,99606.75
2022-11-26T19:49:59.503Z,99606.84
2022-11-26T19:55:01.341Z,99595.69
2022-11-26T20:00:06.659Z,99601.78
2022-11-26T20:05:09.019Z,99607.78
2022-11-26T20:10:11.367Z,99610.38
2022-11-26T20:15:13.215Z,99606.97
2022-11-26T20:20:15.196Z,99608.00
2022-11-26T20:25:17.152Z,99604.00
2022-11-26T20:30:20.371Z,99609.38
2022-11-26T20:35:23.490Z,99605.38
2022-11-26T20:40:25.381Z,99607.22
2022-11-26T20:45:27.364Z,99596.41
2022-11-26T20:50:29.684Z,99593.22
2022-11-26T20:55:31.577Z,99597.88
2022-11-26T21:00:33.442Z,99605.84
2022-11-26T21:05:35.206Z,99600.19
2022-11-26T21:10:39.532Z,99598.13
2022-11-26T21:15:43.176Z,99595.97
2022-11-26T21:20:45.007Z,99592.19
2022-11-26T21:25:47.305Z,99597.56
2022-11-26T21:30:49.206Z,99598.69
2022-11-26T21:35:51.207Z,99604.06
2022-11-26T21:40:53.058Z,99606.63
2022-11-26T21:45:54.840Z,99605.81
2022-11-26T21:51:02.837Z,99605.72
2022-11-26T21:56:26.022Z,99602.91
2022-11-26T22:01:30.339Z,99605.50
2022-11-26T22:06:32.209Z,99609.72
2022-11-26T22:11:37.247Z,99610.66
2022-11-26T22:16:39.134Z,99604.78
2022-11-26T22:21:42.073Z,99622.22
2022-11-26T22:26:45.093Z,99631.22
2022-11-26T22:31:48.530Z,99628.84
2022-11-26T22:36:51.030Z,99618.72
2022-11-26T22:41:52.951Z,99626.47
2022-11-26T22:46:54.749Z,99622.97
2022-11-26T22:51:56.490Z,99632.44
2022-11-26T22:56:58.347Z,99623.78
2022-11-26T23:02:00.339Z,99623.78
2022-11-26T23:07:02.201Z,99620.28
2022-11-26T23:12:04.256Z,99621.09
2022-11-26T23:17:06.090Z,99620.88
2022-11-26T23:22:08.012Z,99627.50
2022-11-26T23:27:09.824Z,99628.94
2022-11-26T23:32:11.643Z,99628.72
2022-11-26T23:37:13.390Z,99625.22
2022-11-26T23:42:15.261Z,99626.13
2022-11-26T23:47:17.140Z,99625.22
2022-11-26T23:52:18.980Z,99621.81
2022-11-26T23:57:20.956Z,99623.78
